createdAt,value
2023-01-26T00:01:29.142Z,35.73
2023-01-26T00:03:57.741Z,38.40
2023-01-26T00:06:26.115Z,37.20
2023-01-26T00:08:56.985Z,33.93
2023-01-26T00:11:27.566Z,36.00
2023-01-26T00:13:56.250Z,38.40
2023-01-26T00:16:24.393Z,37.70
2023-01-26T00:18:52.430Z,41.30
2023-01-26T00:21:22.162Z,42.07
2023-01-26T00:23:51.391Z,39.40
2023-01-26T00:26:22.734Z,43.50
2023-01-26T00:28:52.084Z,39.97
2023-01-26T00:31:22.037Z,42.73
2023-01-26T00:33:50.295Z,38.70
2023-01-26T00:36:18.130Z,37.37
2023-01-26T00:38:46.181Z,42.67
2023-01-26T00:41:34.198Z,38.43
2023-01-26T00:44:03.384Z,38.47
2023-01-26T00:46:31.329Z,38.03
2023-01-26T00:49:00.824Z,34.30
2023-01-26T00:51:29.003Z,39.30
2023-01-26T00:53:56.826Z,37.57
2023-01-26T00:56:27.881Z,40.03
2023-01-26T00:58:55.767Z,37.33
2023-01-26T01:01:25.045Z,42.97
2023-01-26T01:03:53.065Z,39.67
2023-01-26T01:06:20.898Z,39.00
2023-01-26T01:08:48.689Z,39.40
2023-01-26T01:11:16.748Z,36.03
2023-01-26T01:13:44.697Z,36.10
2023-01-26T01:16:15.360Z,34.90
2023-01-26T01:18:45.088Z,32.80
2023-01-26T01:21:15.014Z,34.20
2023-01-26T01:23:43.703Z,35.17
2023-01-26T01:26:12.238Z,32.90
2023-01-26T01:28:41.823Z,29.50
2023-01-26T01:31:11.573Z,28.87
2023-01-26T01:33:39.513Z,33.00
2023-01-26T01:36:11.740Z,32.70
2023-01-26T01:38:39.566Z,30.07
2023-01-26T01:41:07.755Z,28.67
2023-01-26T01:43:36.298Z,29.30
2023-01-26T01:46:05.889Z,28.70
2023-01-26T01:48:39.509Z,30.03
2023-01-26T01:51:13.821Z,27.77
2023-01-26T01:53:46.682Z,29.87
2023-01-26T01:56:21.512Z,29.57
2023-01-26T01:58:52.396Z,33.13
2023-01-26T02:01:20.597Z,29.00
2023-01-26T02:03:51.725Z,29.47
2023-01-26T02:06:24.330Z,32.90
2023-01-26T02:08:54.514Z,31.13
2023-01-26T02:11:26.568Z,29.57
2023-01-26T02:13:55.405Z,30.83
2023-01-26T02:16:23.446Z,36.90
2023-01-26T02:18:51.297Z,30.60
2023-01-26T02:21:22.595Z,25.53
2023-01-26T02:24:00.125Z,35.60
2023-01-26T02:26:32.034Z,28.47
2023-01-26T02:29:00.659Z,29.50
2023-01-26T02:31:29.173Z,31.33
2023-01-26T02:33:56.998Z,28.93
2023-01-26T02:36:27.036Z,34.40
2023-01-26T02:39:03.722Z,32.10
2023-01-26T02:41:50.167Z,28.50
2023-01-26T02:44:18.396Z,26.33
2023-01-26T02:46:46.150Z,32.40
2023-01-26T02:49:31.367Z,30.17
2023-01-26T02:51:59.585Z,31.63
2023-01-26T02:54:44.752Z,29.73
2023-01-26T02:57:13.857Z,30.73
2023-01-26T02:59:41.786Z,32.90
2023-01-26T03:02:09.812Z,29.47
2023-01-26T03:04:37.613Z,29.80
2023-01-26T03:07:05.384Z,33.53
2023-01-26T03:09:33.174Z,30.83
2023-01-26T03:12:00.975Z,33.73
2023-01-26T03:14:30.166Z,31.53
2023-01-26T03:16:57.963Z,35.33
2023-01-26T03:19:43.437Z,27.13
2023-01-26T03:22:29.480Z,31.17
2023-01-26T03:25:14.752Z,29.70
2023-01-26T03:27:44.503Z,31.87
2023-01-26T03:30:16.097Z,31.50
2023-01-26T03:32:44.182Z,34.70
2023-01-26T03:35:15.265Z,30.33
2023-01-26T03:37:43.752Z,29.43
2023-01-26T03:40:32.153Z,27.17
2023-01-26T03:43:17.533Z,26.50
2023-01-26T03:46:04.386Z,28.97
2023-01-26T03:48:49.935Z,26.17
2023-01-26T03:51:35.334Z,30.53
2023-01-26T03:54:21.047Z,27.77
2023-01-26T03:56:48.875Z,27.27
2023-01-26T03:59:16.945Z,26.37
2023-01-26T04:02:06.124Z,30.43
2023-01-26T04:04:51.397Z,29.77
2023-01-26T04:07:37.321Z,27.77
2023-01-26T04:10:05.598Z,27.67
2023-01-26T04:12:33.379Z,28.50
2023-01-26T04:15:18.483Z,29.23
2023-01-26T04:18:05.383Z,26.17
2023-01-26T04:20:50.921Z,32.00
2023-01-26T04:23:19.425Z,30.20
2023-01-26T04:25:48.173Z,25.73
2023-01-26T04:28:16.264Z,30.60
2023-01-26T04:30:44.188Z,29.80
2023-01-26T04:33:13.420Z,29.17
2023-01-26T04:35:41.186Z,31.60
2023-01-26T04:38:08.955Z,28.70
2023-01-26T04:40:36.762Z,31.60
2023-01-26T04:43:04.542Z,31.60
2023-01-26T04:45:32.384Z,29.60
2023-01-26T04:48:00.189Z,31.13
2023-01-26T04:50:29.321Z,25.60
2023-01-26T04:52:57.111Z,31.33
2023-01-26T04:55:24.927Z,32.07
2023-01-26T04:57:52.707Z,27.77
2023-01-26T05:00:21.432Z,27.87
2023-01-26T05:02:49.231Z,28.20
2023-01-26T05:05:17.105Z,29.13
2023-01-26T05:07:46.217Z,28.80
2023-01-26T05:10:15.819Z,29.03
2023-01-26T05:12:43.810Z,27.27
2023-01-26T05:15:11.958Z,29.47
2023-01-26T05:17:39.743Z,24.83
2023-01-26T05:20:08.910Z,23.20
2023-01-26T05:22:36.905Z,26.17
2023-01-26T05:25:06.709Z,31.73
2023-01-26T05:27:34.510Z,24.93
2023-01-26T05:30:02.377Z,29.13
2023-01-26T05:32:31.008Z,23.27
2023-01-26T05:34:59.150Z,28.50
2023-01-26T05:37:28.136Z,28.17
2023-01-26T05:39:56.327Z,25.27
2023-01-26T05:42:25.893Z,27.40
2023-01-26T05:44:54.057Z,23.10
2023-01-26T05:47:21.928Z,23.77
2023-01-26T05:49:50.324Z,24.60
2023-01-26T05:52:19.526Z,22.40
2023-01-26T05:54:47.563Z,23.00
2023-01-26T05:57:16.836Z,19.33
2023-01-26T05:59:46.081Z,22.17
2023-01-26T06:02:14.003Z,23.40
2023-01-26T06:04:41.875Z,23.23
2023-01-26T06:07:13.550Z,19.47
2023-01-26T06:09:41.500Z,22.93
2023-01-26T06:12:15.195Z,18.73
2023-01-26T06:14:43.035Z,18.80
2023-01-26T06:17:12.385Z,24.10
2023-01-26T06:19:40.214Z,21.00
2023-01-26T06:22:08.983Z,24.40
2023-01-26T06:24:36.848Z,21.23
2023-01-26T06:27:06.980Z,22.70
2023-01-26T06:29:35.024Z,21.67
2023-01-26T06:32:02.837Z,21.60
2023-01-26T06:34:32.931Z,19.70
2023-01-26T06:37:00.824Z,20.33
2023-01-26T06:39:28.688Z,19.07
2023-01-26T06:41:56.874Z,24.83
2023-01-26T06:44:24.688Z,19.60
2023-01-26T06:46:52.523Z,19.93
2023-01-26T06:49:20.362Z,20.10
2023-01-26T06:51:59.275Z,19.80
2023-01-26T06:54:27.104Z,23.90
2023-01-26T06:56:54.898Z,20.00
2023-01-26T06:59:22.760Z,23.00
2023-01-26T07:01:50.706Z,24.87
2023-01-26T07:04:18.607Z,22.90
2023-01-26T07:06:46.488Z,20.60
2023-01-26T07:09:15.628Z,25.53
2023-01-26T07:11:43.420Z,26.60
2023-01-26T07:14:11.217Z,21.03
2023-01-26T07:16:39.151Z,22.47
2023-01-26T07:19:07.906Z,24.00
2023-01-26T07:21:39.070Z,25.47
2023-01-26T07:24:08.144Z,22.43
2023-01-26T07:26:37.306Z,25.00
2023-01-26T07:29:05.095Z,24.50
2023-01-26T07:31:33.048Z,25.73
2023-01-26T07:34:00.859Z,24.20
2023-01-26T07:36:28.910Z,26.50
2023-01-26T07:38:56.739Z,23.17
2023-01-26T07:41:24.518Z,24.63
2023-01-26T07:43:53.723Z,25.90
2023-01-26T07:46:21.613Z,25.10
2023-01-26T07:48:49.615Z,23.67
2023-01-26T07:51:17.520Z,25.80
2023-01-26T07:53:45.288Z,26.40
2023-01-26T07:56:15.988Z,23.60
2023-01-26T07:58:43.858Z,26.90
2023-01-26T08:01:14.633Z,23.67
2023-01-26T08:03:45.421Z,28.63
2023-01-26T08:06:14.975Z,25.80
2023-01-26T08:08:43.831Z,28.80
2023-01-26T08:11:12.717Z,26.87
2023-01-26T08:13:40.531Z,32.93
2023-01-26T08:16:12.020Z,24.73
2023-01-26T08:18:42.265Z,28.10
2023-01-26T08:21:10.881Z,23.37
2023-01-26T08:23:38.928Z,28.83
2023-01-26T08:26:08.878Z,33.93
2023-01-26T08:28:38.085Z,26.93
2023-01-26T08:31:06.782Z,24.80
2023-01-26T08:33:35.752Z,30.13
2023-01-26T08:36:06.359Z,25.57
2023-01-26T08:38:35.115Z,25.80
2023-01-26T08:41:03.853Z,25.63
2023-01-26T08:43:32.084Z,26.47
2023-01-26T08:46:00.128Z,26.47
2023-01-26T08:48:28.405Z,25.90
2023-01-26T08:50:57.219Z,27.17
2023-01-26T08:53:26.766Z,29.83
2023-01-26T08:55:54.560Z,29.53
2023-01-26T08:58:22.323Z,33.17
2023-01-26T09:00:50.161Z,34.93
2023-01-26T09:03:18.053Z,29.87
2023-01-26T09:05:45.885Z,30.60
2023-01-26T09:08:13.708Z,30.37
2023-01-26T09:10:45.167Z,30.67
2023-01-26T09:13:13.225Z,31.13
2023-01-26T09:15:41.019Z,30.67
2023-01-26T09:18:08.858Z,35.70
2023-01-26T09:20:38.396Z,35.40
2023-01-26T09:23:06.453Z,30.20
2023-01-26T09:25:37.971Z,38.80
2023-01-26T09:28:07.895Z,33.10
2023-01-26T09:30:35.824Z,34.83
2023-01-26T09:33:05.828Z,33.00
2023-01-26T09:35:33.884Z,33.37
2023-01-26T09:38:01.701Z,33.27
2023-01-26T09:40:38.142Z,35.10
2023-01-26T09:43:21.961Z,28.20
2023-01-26T09:46:01.510Z,33.33
2023-01-26T09:48:38.775Z,36.10
2023-01-26T09:51:11.360Z,30.47
2023-01-26T09:53:46.752Z,38.27
2023-01-26T09:56:19.353Z,32.60
2023-01-26T09:58:54.557Z,32.77
2023-01-26T10:01:31.207Z,32.53
2023-01-26T10:04:06.313Z,33.10
2023-01-26T10:06:35.229Z,34.43
2023-01-26T10:09:07.164Z,35.67
2023-01-26T10:11:40.008Z,30.87
2023-01-26T10:14:16.647Z,31.17
2023-01-26T10:16:47.693Z,31.10
2023-01-26T10:19:21.849Z,29.87
2023-01-26T10:21:52.777Z,29.33
2023-01-26T10:24:24.025Z,31.20
2023-01-26T10:26:53.336Z,34.70
2023-01-26T10:29:23.261Z,29.67
2023-01-26T10:31:51.073Z,34.50
2023-01-26T10:34:24.322Z,34.47
2023-01-26T10:36:54.528Z,30.07
2023-01-26T10:39:22.282Z,32.63
2023-01-26T10:42:19.163Z,30.20
2023-01-26T10:44:51.371Z,27.13
2023-01-26T10:47:21.409Z,31.60
2023-01-26T10:49:50.026Z,27.73
2023-01-26T10:52:19.233Z,24.50
2023-01-26T10:54:47.158Z,26.93
2023-01-26T10:57:22.414Z,28.40
2023-01-26T10:59:56.007Z,24.87
2023-01-26T11:02:28.209Z,27.00
2023-01-26T11:05:16.564Z,26.80
2023-01-26T11:07:46.080Z,29.23
2023-01-26T11:10:26.622Z,25.30
2023-01-26T11:13:13.203Z,26.93
2023-01-26T11:15:44.126Z,27.90
2023-01-26T11:18:24.716Z,23.90
2023-01-26T11:20:58.958Z,26.80
2023-01-26T11:23:40.640Z,23.77
2023-01-26T11:26:37.808Z,28.73
2023-01-26T11:29:25.909Z,26.40
2023-01-26T11:32:04.773Z,23.80
2023-01-26T11:34:41.087Z,28.33
2023-01-26T11:37:36.531Z,24.90
2023-01-26T11:40:30.961Z,26.47
2023-01-26T11:43:37.767Z,25.77
2023-01-26T11:46:27.969Z,24.73
2023-01-26T11:49:09.424Z,25.97
2023-01-26T11:51:49.679Z,26.67
2023-01-26T11:54:32.165Z,25.97
2023-01-26T11:57:09.299Z,23.60
2023-01-26T11:59:42.519Z,21.93
2023-01-26T12:02:27.493Z,22.93
2023-01-26T12:04:58.784Z,25.17
2023-01-26T12:07:31.226Z,26.00
2023-01-26T12:10:01.462Z,25.87
2023-01-26T12:12:38.349Z,23.50
2023-01-26T12:15:13.671Z,24.50
2023-01-26T12:17:49.039Z,25.13
2023-01-26T12:20:28.417Z,24.20
2023-01-26T12:23:04.521Z,24.87
2023-01-26T12:25:36.521Z,21.90
2023-01-26T12:28:17.961Z,21.37
2023-01-26T12:30:53.097Z,23.63
2023-01-26T12:33:21.041Z,27.57
2023-01-26T12:36:13.564Z,22.10
2023-01-26T12:38:50.098Z,26.47
2023-01-26T12:41:23.485Z,23.90
2023-01-26T12:44:01.583Z,24.47
2023-01-26T12:46:33.259Z,25.10
2023-01-26T12:49:08.517Z,24.43
2023-01-26T12:51:42.355Z,22.80
2023-01-26T12:54:19.258Z,21.73
2023-01-26T12:56:52.351Z,21.63
2023-01-26T12:59:48.235Z,23.37
2023-01-26T13:02:27.355Z,22.80
2023-01-26T13:04:55.733Z,22.30
2023-01-26T13:07:34.952Z,24.03
2023-01-26T13:10:30.219Z,23.60
2023-01-26T13:13:00.385Z,23.70
2023-01-26T13:15:30.387Z,21.10
2023-01-26T13:18:00.701Z,20.83
2023-01-26T13:20:52.460Z,25.17
2023-01-26T13:23:44.331Z,21.27
2023-01-26T13:26:25.366Z,22.10
2023-01-26T13:28:54.354Z,22.00
2023-01-26T13:31:33.819Z,24.13
2023-01-26T13:34:04.373Z,20.50
2023-01-26T13:36:37.672Z,19.33
2023-01-26T13:39:14.320Z,20.07
2023-01-26T13:41:47.426Z,19.20
2023-01-26T13:44:19.426Z,23.47
2023-01-26T13:46:52.931Z,19.30
2023-01-26T13:49:28.226Z,22.33
2023-01-26T13:51:56.120Z,19.00
2023-01-26T13:54:27.617Z,26.13
2023-01-26T13:57:03.392Z,23.20
2023-01-26T13:59:33.058Z,22.30
2023-01-26T14:02:01.364Z,23.10
2023-01-26T14:04:30.899Z,21.97
2023-01-26T14:07:02.237Z,21.27
2023-01-26T14:09:34.122Z,21.00
2023-01-26T14:12:03.337Z,20.03
2023-01-26T14:14:34.821Z,21.60
2023-01-26T14:17:08.058Z,19.30
2023-01-26T14:19:41.056Z,19.27
2023-01-26T14:22:14.839Z,23.87
2023-01-26T14:24:44.550Z,21.30
2023-01-26T14:27:30.829Z,20.20
2023-01-26T14:29:59.418Z,22.27
2023-01-26T14:32:30.023Z,24.20
2023-01-26T14:34:59.872Z,24.53
2023-01-26T14:37:29.113Z,19.40
2023-01-26T14:40:20.871Z,26.67
2023-01-26T14:42:50.761Z,20.90
2023-01-26T14:45:19.373Z,20.53
2023-01-26T14:47:47.293Z,28.47
2023-01-26T14:50:20.570Z,25.20
2023-01-26T14:52:49.059Z,21.93
2023-01-26T14:55:23.668Z,28.83
2023-01-26T14:57:52.004Z,22.23
2023-01-26T15:00:25.468Z,22.27
2023-01-26T15:02:55.698Z,29.03
2023-01-26T15:05:31.657Z,23.23
2023-01-26T15:08:01.265Z,26.50
2023-01-26T15:10:36.437Z,28.20
2023-01-26T15:13:08.183Z,23.63
2023-01-26T15:15:39.583Z,23.70
2023-01-26T15:18:18.996Z,26.63
2023-01-26T15:21:00.125Z,23.87
2023-01-26T15:23:30.804Z,27.40
2023-01-26T15:26:07.481Z,28.37
2023-01-26T15:28:36.571Z,24.60
2023-01-26T15:31:05.259Z,24.77
2023-01-26T15:33:41.252Z,23.43
2023-01-26T15:36:24.438Z,26.10
2023-01-26T15:38:53.597Z,24.37
2023-01-26T15:41:22.747Z,25.90
2023-01-26T15:43:50.519Z,24.30
2023-01-26T15:46:18.334Z,22.03
2023-01-26T15:48:46.884Z,22.37
2023-01-26T15:51:15.307Z,25.30
2023-01-26T15:53:43.302Z,20.50
2023-01-26T15:56:16.089Z,25.10
2023-01-26T15:58:45.235Z,27.50
2023-01-26T16:01:32.153Z,25.70
2023-01-26T16:03:59.922Z,24.03
2023-01-26T16:06:29.244Z,24.93
2023-01-26T16:08:58.152Z,29.20
2023-01-26T16:11:30.953Z,26.77
2023-01-26T16:14:04.232Z,20.50
2023-01-26T16:16:33.058Z,25.63
2023-01-26T16:19:01.072Z,23.53
2023-01-26T16:21:32.948Z,20.73
2023-01-26T16:24:01.273Z,27.10
2023-01-26T16:26:30.345Z,22.47
2023-01-26T16:28:58.351Z,21.17
2023-01-26T16:31:30.604Z,21.37
2023-01-26T16:33:59.894Z,19.87
2023-01-26T16:36:27.886Z,20.90
2023-01-26T16:38:55.752Z,17.70
2023-01-26T16:41:26.321Z,16.17
2023-01-26T16:43:55.748Z,21.03
2023-01-26T16:46:23.853Z,18.90
2023-01-26T16:48:53.736Z,20.17
2023-01-26T16:51:24.882Z,20.70
2023-01-26T16:53:53.322Z,18.70
2023-01-26T16:56:21.593Z,26.73
2023-01-26T16:58:49.820Z,22.37
2023-01-26T17:01:20.265Z,21.33
2023-01-26T17:03:48.978Z,28.90
2023-01-26T17:06:21.007Z,26.67
2023-01-26T17:08:49.185Z,36.07
2023-01-26T17:11:19.252Z,24.50
2023-01-26T17:13:47.722Z,24.77
2023-01-26T17:16:17.414Z,26.93
2023-01-26T17:18:46.034Z,22.30
2023-01-26T17:21:14.398Z,24.17
2023-01-26T17:23:44.716Z,22.17
2023-01-26T17:26:15.199Z,22.97
2023-01-26T17:28:43.119Z,21.63
2023-01-26T17:31:12.228Z,22.17
2023-01-26T17:33:40.614Z,23.80
2023-01-26T17:36:08.925Z,26.37
2023-01-26T17:38:37.154Z,21.13
2023-01-26T17:41:06.616Z,23.70
2023-01-26T17:43:34.993Z,21.00
2023-01-26T17:46:04.892Z,23.80
2023-01-26T17:48:32.948Z,18.13
2023-01-26T17:51:00.774Z,20.80
2023-01-26T17:53:28.850Z,21.20
2023-01-26T17:55:56.673Z,22.07
2023-01-26T17:58:25.863Z,24.03
2023-01-26T18:00:53.809Z,18.03
2023-01-26T18:03:26.144Z,22.17
2023-01-26T18:05:54.530Z,20.10
2023-01-26T18:08:22.948Z,23.57
2023-01-26T18:10:51.150Z,24.10
2023-01-26T18:13:18.930Z,19.43
2023-01-26T18:15:48.066Z,21.13
2023-01-26T18:18:15.889Z,20.80
2023-01-26T18:20:43.689Z,22.97
2023-01-26T18:23:11.470Z,20.00
2023-01-26T18:25:39.536Z,21.60
2023-01-26T18:28:08.327Z,22.50
2023-01-26T18:30:36.256Z,23.33
2023-01-26T18:33:05.703Z,24.80
2023-01-26T18:35:34.231Z,23.60
2023-01-26T18:38:03.196Z,22.97
2023-01-26T18:40:31.063Z,20.17
2023-01-26T18:42:59.015Z,26.43
2023-01-26T18:45:26.930Z,23.10
2023-01-26T18:47:54.734Z,22.33
2023-01-26T18:50:24.143Z,27.13
2023-01-26T18:52:52.502Z,23.93
2023-01-26T18:55:20.318Z,25.67
2023-01-26T18:57:49.381Z,25.17
2023-01-26T19:00:17.926Z,22.10
2023-01-26T19:02:45.687Z,28.67
2023-01-26T19:05:13.802Z,32.13
2023-01-26T19:07:43.521Z,23.90
2023-01-26T19:10:12.057Z,25.50
2023-01-26T19:12:39.852Z,22.77
2023-01-26T19:15:09.543Z,24.73
2023-01-26T19:17:37.579Z,24.17
2023-01-26T19:20:06.350Z,24.20
2023-01-26T19:22:34.168Z,23.40
2023-01-26T19:25:03.319Z,25.63
2023-01-26T19:27:31.846Z,28.20
2023-01-26T19:29:59.670Z,24.27
2023-01-26T19:32:27.462Z,23.80
2023-01-26T19:34:55.273Z,25.87
2023-01-26T19:37:23.077Z,23.63
2023-01-26T19:39:50.875Z,24.40
2023-01-26T19:42:19.989Z,23.77
2023-01-26T19:44:47.779Z,26.60
2023-01-26T19:47:15.545Z,24.10
2023-01-26T19:49:43.425Z,22.87
2023-01-26T19:52:11.281Z,24.17
2023-01-26T19:54:39.063Z,23.07
2023-01-26T19:57:06.882Z,20.40
2023-01-26T19:59:36.026Z,23.63
2023-01-26T20:02:03.820Z,20.40
2023-01-26T20:04:31.624Z,21.30
2023-01-26T20:07:01.950Z,19.73
2023-01-26T20:09:33.304Z,19.70
2023-01-26T20:12:01.100Z,20.70
2023-01-26T20:14:28.963Z,22.07
2023-01-26T20:16:58.074Z,19.27
2023-01-26T20:19:26.202Z,19.00
2023-01-26T20:21:54.015Z,16.77
2023-01-26T20:24:22.414Z,25.47
2023-01-26T20:26:50.259Z,15.67
2023-01-26T20:29:19.481Z,15.90
2023-01-26T20:31:48.783Z,14.80
2023-01-26T20:34:21.069Z,14.60
2023-01-26T20:36:49.548Z,13.73
2023-01-26T20:39:24.966Z,13.90
2023-01-26T20:41:53.515Z,15.77
2023-01-26T20:44:21.366Z,14.00
2023-01-26T20:46:49.979Z,14.50
2023-01-26T20:49:20.354Z,15.00
2023-01-26T20:51:48.642Z,12.20
2023-01-26T20:54:17.868Z,14.47
2023-01-26T20:56:46.595Z,13.73
2023-01-26T20:59:14.413Z,10.80
2023-01-26T21:01:42.222Z,13.07
2023-01-26T21:04:10.027Z,13.63
2023-01-26T21:06:41.550Z,12.93
2023-01-26T21:09:12.646Z,12.73
2023-01-26T21:11:40.799Z,12.57
2023-01-26T21:14:11.904Z,13.03
2023-01-26T21:16:39.746Z,12.20
2023-01-26T21:19:07.544Z,10.47
2023-01-26T21:21:35.392Z,11.40
2023-01-26T21:24:04.990Z,12.33
2023-01-26T21:26:33.134Z,9.53
2023-01-26T21:29:01.626Z,9.73
2023-01-26T21:31:31.623Z,11.90
2023-01-26T21:34:00.474Z,11.03
2023-01-26T21:36:30.698Z,8.70
2023-01-26T21:39:00.186Z,10.20
2023-01-26T21:41:50.203Z,9.37
2023-01-26T21:44:20.046Z,9.90
2023-01-26T21:46:49.956Z,10.10
2023-01-26T21:49:18.759Z,8.90
2023-01-26T21:52:04.271Z,8.70
2023-01-26T21:54:32.282Z,9.27
2023-01-26T21:57:02.814Z,10.17
2023-01-26T21:59:30.349Z,8.30
2023-01-26T22:01:59.335Z,8.90
2023-01-26T22:04:28.932Z,8.47
2023-01-26T22:06:57.551Z,8.57
2023-01-26T22:09:25.912Z,9.70
2023-01-26T22:11:53.718Z,9.27
2023-01-26T22:14:24.915Z,8.13
2023-01-26T22:16:53.136Z,11.33
2023-01-26T22:19:21.155Z,10.57
2023-01-26T22:21:48.935Z,7.17
2023-01-26T22:24:17.983Z,7.40
2023-01-26T22:26:45.845Z,10.83
2023-01-26T22:29:14.570Z,7.93
2023-01-26T22:31:43.788Z,8.73
2023-01-26T22:34:12.283Z,9.03
2023-01-26T22:36:41.043Z,9.77
2023-01-26T22:39:09.383Z,9.07
2023-01-26T22:41:37.674Z,8.30
2023-01-26T22:44:05.642Z,8.83
2023-01-26T22:46:33.940Z,10.70
2023-01-26T22:49:04.668Z,9.30
2023-01-26T22:51:36.854Z,10.90
2023-01-26T22:54:05.227Z,11.20
2023-01-26T22:56:33.450Z,10.53
2023-01-26T22:59:01.666Z,9.77
2023-01-26T23:01:31.398Z,12.47
2023-01-26T23:04:00.619Z,12.43
2023-01-26T23:06:29.989Z,11.83
2023-01-26T23:09:01.021Z,10.93
2023-01-26T23:11:30.158Z,11.10
2023-01-26T23:13:59.363Z,13.50
2023-01-26T23:16:27.732Z,12.93
2023-01-26T23:18:56.933Z,13.67
2023-01-26T23:21:25.806Z,10.70
2023-01-26T23:23:55.110Z,13.37
2023-01-26T23:26:23.671Z,12.20
2023-01-26T23:28:51.505Z,15.00
2023-01-26T23:31:20.173Z,14.93
2023-01-26T23:33:48.476Z,17.10
2023-01-26T23:36:16.837Z,12.33
2023-01-26T23:38:45.653Z,12.20
2023-01-26T23:41:14.873Z,14.87
2023-01-26T23:43:43.104Z,14.80
2023-01-26T23:46:12.256Z,14.80
2023-01-26T23:48:40.125Z,13.83
2023-01-26T23:51:10.438Z,12.93
2023-01-26T23:53:38.647Z,15.80
2023-01-26T23:56:08.878Z,15.33
2023-01-26T23:58:38.521Z,16.30
